<?xml version="1.0" encoding="UTF-8" standalone="no" ?><gpx xmlns="http://www.topografix.com/GPX/1/1" xmlns:gpxx="http://www.garmin.com/xmlschemas/GpxExtensions/v3" xmlns:wptx1="http://www.garmin.com/xmlschemas/WaypointExtension/v1" xmlns:gpxtpx="http://www.garmin.com/xmlschemas/TrackPointExtension/v1" creator="Dakota 20" version="1.1" xmlns:xsi="http://www.w3.org/2001/XMLSchema-instance" xsi:schemaLocation="http://www.topografix.com/GPX/1/1 http://www.topografix.com/GPX/1/1/gpx.xsd http://www.garmin.com/xmlschemas/GpxExtensions/v3 http://www8.garmin.com/xmlschemas/GpxExtensionsv3.xsd http://www.garmin.com/xmlschemas/WaypointExtension/v1 http://www8.garmin.com/xmlschemas/WaypointExtensionv1.xsd http://www.garmin.com/xmlschemas/TrackPointExtension/v1 http://www.garmin.com/xmlschemas/TrackPointExtensionv1.xsd"><metadata><link href="http://www.garmin.com"><text>Garmin International</text></link><time>2014-08-19T17:28:42Z</time></metadata><trk><name>Current Track: 13 AUG 2014 10:01</name><extensions><gpxx:TrackExtension><gpxx:DisplayColor>Cyan</gpxx:DisplayColor></gpxx:TrackExtension></extensions><trkseg><trkpt lat="51.9384500943" lon="-2.0288963243"><ele>203.94</ele><time>2014-08-13T09:01:13Z</time></trkpt><trkpt lat="51.9384499267" lon="-2.0288978331"><ele>205.38</ele><time>2014-08-13T09:01:16Z</time></trkpt><trkpt lat="51.9384462386" lon="-2.0288934745"><ele>204.42</ele><time>2014-08-13T09:01:20Z</time></trkpt><trkpt lat="51.9383118767" lon="-2.0287100784"><ele>206.34</ele><time>2014-08-13T09:01:35Z</time></trkpt><trkpt lat="51.9382675365" lon="-2.0285395905"><ele>207.30</ele><time>2014-08-13T09:01:48Z</time></trkpt><trkpt lat="51.9382739067" lon="-2.0283312164"><ele>209.22</ele><time>2014-08-13T09:02:01Z</time></trkpt><trkpt lat="51.9382617529" lon="-2.0281079225"><ele>211.15</ele><time>2014-08-13T09:02:17Z</time></trkpt><trkpt lat="51.9382811151" lon="-2.0280191582"><ele>212.11</ele><time>2014-08-13T09:02:30Z</time></trkpt><trkpt lat="51.9382693805" lon="-2.0278958604"><ele>213.07</ele><time>2014-08-13T09:02:43Z</time></trkpt><trkpt lat="51.9382885750" lon="-2.0277179964"><ele>214.51</ele><time>2014-08-13T09:02:58Z</time></trkpt><trkpt lat="51.9382873178" lon="-2.0275632665"><ele>216.43</ele><time>2014-08-13T09:03:13Z</time></trkpt><trkpt lat="51.9382933527" lon="-2.0274461713"><ele>217.40</ele><time>2014-08-13T09:03:22Z</time></trkpt><trkpt lat="51.9382900000" lon="-2.0272332709"><ele>219.32</ele><time>2014-08-13T09:03:37Z</time></trkpt><trkpt lat="51.9382806122" lon="-2.0271524694"><ele>220.76</ele><time>2014-08-13T09:03:51Z</time></trkpt><trkpt lat="51.9382993039" lon="-2.0270589273"><ele>221.24</ele><time>2014-08-13T09:04:12Z</time></trkpt><trkpt lat="51.9383292273" lon="-2.0268602762"><ele>224.12</ele><time>2014-08-13T09:04:27Z</time></trkpt><trkpt lat="51.9383320771" lon="-2.0268429257"><ele>225.57</ele><time>2014-08-13T09:04:46Z</time></trkpt><trkpt lat="51.9383863080" lon="-2.0266684983"><ele>227.01</ele><time>2014-08-13T09:05:00Z</time></trkpt><trkpt lat="51.9384312350" lon="-2.0264084917"><ele>230.37</ele><time>2014-08-13T09:05:18Z</time></trkpt><trkpt lat="51.9384485856" lon="-2.0262536779"><ele>234.22</ele><time>2014-08-13T09:05:33Z</time></trkpt><trkpt lat="51.9385108631" lon="-2.0261237584"><ele>237.58</ele><time>2014-08-13T09:05:46Z</time></trkpt><trkpt lat="51.9385211729" lon="-2.0260752272"><ele>238.06</ele><time>2014-08-13T09:06:02Z</time></trkpt><trkpt lat="51.9385207538" lon="-2.0260720421"><ele>238.06</ele><time>2014-08-13T09:06:23Z</time></trkpt><trkpt lat="51.9385197479" lon="-2.0260707010"><ele>238.06</ele><time>2014-08-13T09:06:48Z</time></trkpt><trkpt lat="51.9385413732" lon="-2.0259897318"><ele>239.51</ele><time>2014-08-13T09:07:10Z</time></trkpt><trkpt lat="51.9385678601" lon="-2.0258555375"><ele>241.91</ele><time>2014-08-13T09:07:27Z</time></trkpt><trkpt lat="51.9385651778" lon="-2.0258627459"><ele>241.91</ele><time>2014-08-13T09:07:50Z</time></trkpt><trkpt lat="51.9385702908" lon="-2.0257619116"><ele>242.87</ele><time>2014-08-13T09:08:02Z</time></trkpt><trkpt lat="51.9385460671" lon="-2.0256170724"><ele>245.27</ele><time>2014-08-13T09:08:17Z</time></trkpt><trkpt lat="51.9385427143" lon="-2.0256261248"><ele>245.75</ele><time>2014-08-13T09:08:41Z</time></trkpt><trkpt lat="51.9385442231" lon="-2.0254414715"><ele>249.60</ele><time>2014-08-13T09:08:53Z</time></trkpt><trkpt lat="51.9385474920" lon="-2.0253101271"><ele>248.64</ele><time>2014-08-13T09:09:09Z</time></trkpt><trkpt lat="51.9385376852" lon="-2.0252594166"><ele>248.64</ele><time>2014-08-13T09:09:22Z</time></trkpt><trkpt lat="51.9384803530" lon="-2.0251460932"><ele>251.04</ele><time>2014-08-13T09:09:38Z</time></trkpt><trkpt lat="51.9384616613" lon="-2.0251339395"><ele>252.00</ele><time>2014-08-13T09:09:57Z</time></trkpt><trkpt lat="51.9383902475" lon="-2.0251171757"><ele>252.00</ele><time>2014-08-13T09:10:06Z</time></trkpt><trkpt lat="51.9383386988" lon="-2.0251077879"><ele>252.96</ele><time>2014-08-13T09:10:11Z</time></trkpt><trkpt lat="51.9381623436" lon="-2.0250867493"><ele>254.89</ele><time>2014-08-13T09:10:28Z</time></trkpt><trkpt lat="51.9380346034" lon="-2.0251334365"><ele>255.37</ele><time>2014-08-13T09:10:41Z</time></trkpt><trkpt lat="51.9380178396" lon="-2.0251435786"><ele>255.37</ele><time>2014-08-13T09:10:43Z</time></trkpt><trkpt lat="51.9378724135" lon="-2.0251562353"><ele>256.81</ele><time>2014-08-13T09:10:58Z</time></trkpt><trkpt lat="51.9377486967" lon="-2.0251711551"><ele>258.25</ele><time>2014-08-13T09:11:13Z</time></trkpt><trkpt lat="51.9376375526" lon="-2.0252033416"><ele>258.73</ele><time>2014-08-13T09:11:28Z</time></trkpt><trkpt lat="51.9375922903" lon="-2.0252404734"><ele>258.73</ele><time>2014-08-13T09:11:43Z</time></trkpt><trkpt lat="51.9375426695" lon="-2.0252820477"><ele>261.14</ele><time>2014-08-13T09:11:57Z</time></trkpt><trkpt lat="51.9375340361" lon="-2.0252971351"><ele>261.14</ele><time>2014-08-13T09:12:18Z</time></trkpt><trkpt lat="51.9375308510" lon="-2.0253015775"><ele>261.14</ele><time>2014-08-13T09:12:44Z</time></trkpt><trkpt lat="51.9375290070" lon="-2.0253055170"><ele>261.62</ele><time>2014-08-13T09:13:06Z</time></trkpt><trkpt lat="51.9375241455" lon="-2.0253100432"><ele>261.62</ele><time>2014-08-13T09:13:31Z</time></trkpt><trkpt lat="51.9375171047" lon="-2.0253235381"><ele>262.10</ele><time>2014-08-13T09:14:07Z</time></trkpt><trkpt lat="51.9375150930" lon="-2.0253274776"><ele>262.10</ele><time>2014-08-13T09:14:44Z</time></trkpt><trkpt lat="51.9375135005" lon="-2.0253270585"><ele>262.58</ele><time>2014-08-13T09:15:09Z</time></trkpt><trkpt lat="51.9374989159" lon="-2.0253228676"><ele>263.06</ele><time>2014-08-13T09:15:11Z</time></trkpt><trkpt lat="51.9373824075" lon="-2.0253127255"><ele>263.54</ele><time>2014-08-13T09:15:20Z</time></trkpt><trkpt lat="51.9371695910" lon="-2.0253077801"><ele>265.46</ele><time>2014-08-13T09:15:36Z</time></trkpt><trkpt lat="51.9370980933" lon="-2.0253081154"><ele>265.46</ele><time>2014-08-13T09:15:41Z</time></trkpt><trkpt lat="51.9370316248" lon="-2.0252874121"><ele>266.42</ele><time>2014-08-13T09:15:46Z</time></trkpt><trkpt lat="51.9368352368" lon="-2.0253152400"><ele>267.38</ele><time>2014-08-13T09:16:00Z</time></trkpt><trkpt lat="51.9366393518" lon="-2.0253468398"><ele>268.83</ele><time>2014-08-13T09:16:14Z</time></trkpt><trkpt lat="51.9364489149" lon="-2.0253902581"><ele>270.75</ele><time>2014-08-13T09:16:28Z</time></trkpt><trkpt lat="51.9364255294" lon="-2.0254566427"><ele>271.23</ele><time>2014-08-13T09:16:40Z</time></trkpt><trkpt lat="51.9364144653" lon="-2.0254672039"><ele>271.71</ele><time>2014-08-13T09:16:48Z</time></trkpt><trkpt lat="51.9363225158" lon="-2.0254690479"><ele>272.67</ele><time>2014-08-13T09:16:56Z</time></trkpt><trkpt lat="51.9360989705" lon="-2.0255050901"><ele>274.11</ele><time>2014-08-13T09:17:12Z</time></trkpt><trkpt lat="51.9358741678" lon="-2.0254775137"><ele>276.04</ele><time>2014-08-13T09:17:28Z</time></trkpt><trkpt lat="51.9356840663" lon="-2.0254100394"><ele>277.96</ele><time>2014-08-13T09:17:43Z</time></trkpt><trkpt lat="51.9355440047" lon="-2.0253310818"><ele>279.40</ele><time>2014-08-13T09:17:57Z</time></trkpt><trkpt lat="51.9355484471" lon="-2.0253428165"><ele>279.40</ele><time>2014-08-13T09:18:14Z</time></trkpt><trkpt lat="51.9355492014" lon="-2.0253445767"><ele>283.73</ele><time>2014-08-13T09:18:18Z</time></trkpt><trkpt lat="51.9355493691" lon="-2.0253448281"><ele>282.28</ele><time>2014-08-13T09:18:19Z</time></trkpt><trkpt lat="51.9355499558" lon="-2.0253464207"><ele>279.40</ele><time>2014-08-13T09:18:23Z</time></trkpt><trkpt lat="51.9355449267" lon="-2.0253488515"><ele>279.40</ele><time>2014-08-13T09:18:28Z</time></trkpt><trkpt lat="51.9355100580" lon="-2.0253111329"><ele>279.88</ele><time>2014-08-13T09:18:32Z</time></trkpt><trkpt lat="51.9353455212" lon="-2.0252464246"><ele>282.28</ele><time>2014-08-13T09:18:46Z</time></trkpt><trkpt lat="51.9352211338" lon="-2.0252437424"><ele>284.69</ele><time>2014-08-13T09:18:55Z</time></trkpt><trkpt lat="51.9350377377" lon="-2.0252289064"><ele>288.05</ele><time>2014-08-13T09:19:10Z</time></trkpt><trkpt lat="51.9349384122" lon="-2.0252188481"><ele>287.09</ele><time>2014-08-13T09:19:18Z</time></trkpt><trkpt lat="51.9348537549" lon="-2.0252645295"><ele>287.57</ele><time>2014-08-13T09:19:31Z</time></trkpt><trkpt lat="51.9348328002" lon="-2.0252077840"><ele>287.57</ele><time>2014-08-13T09:19:35Z</time></trkpt><trkpt lat="51.9348154496" lon="-2.0251844823"><ele>289.01</ele><time>2014-08-13T09:19:37Z</time></trkpt><trkpt lat="51.9345896412" lon="-2.0250688121"><ele>289.49</ele><time>2014-08-13T09:19:55Z</time></trkpt><trkpt lat="51.9345660880" lon="-2.0250577480"><ele>290.46</ele><time>2014-08-13T09:19:57Z</time></trkpt><trkpt lat="51.9344888069" lon="-2.0250276569"><ele>292.38</ele><time>2014-08-13T09:20:03Z</time></trkpt><trkpt lat="51.9344423711" lon="-2.0250165928"><ele>290.46</ele><time>2014-08-13T09:20:07Z</time></trkpt><trkpt lat="51.9343466498" lon="-2.0249812212"><ele>293.82</ele><time>2014-08-13T09:20:14Z</time></trkpt><trkpt lat="51.9341157284" lon="-2.0249088854"><ele>295.74</ele><time>2014-08-13T09:20:33Z</time></trkpt><trkpt lat="51.9340355136" lon="-2.0248775370"><ele>297.67</ele><time>2014-08-13T09:20:39Z</time></trkpt><trkpt lat="51.9339608308" lon="-2.0248468593"><ele>298.15</ele><time>2014-08-13T09:20:46Z</time></trkpt><trkpt lat="51.9338095374" lon="-2.0248118229"><ele>301.03</ele><time>2014-08-13T09:20:58Z</time></trkpt><trkpt lat="51.9337868225" lon="-2.0248085540"><ele>301.99</ele><time>2014-08-13T09:21:00Z</time></trkpt><trkpt lat="51.9336285722" lon="-2.0247700810"><ele>302.95</ele><time>2014-08-13T09:21:15Z</time></trkpt><trkpt lat="51.9335570745" lon="-2.0247508865"><ele>302.95</ele><time>2014-08-13T09:21:30Z</time></trkpt><trkpt lat="51.9335538056" lon="-2.0247456897"><ele>304.88</ele><time>2014-08-13T09:21:33Z</time></trkpt><trkpt lat="51.9335472677" lon="-2.0247400738"><ele>303.91</ele><time>2014-08-13T09:21:36Z</time></trkpt><trkpt lat="51.9334989879" lon="-2.0246933866"><ele>304.88</ele><time>2014-08-13T09:21:40Z</time></trkpt><trkpt lat="51.9332869258" lon="-2.0245949831"><ele>307.76</ele><time>2014-08-13T09:21:57Z</time></trkpt><trkpt lat="51.9332069624" lon="-2.0245589409"><ele>308.24</ele><time>2014-08-13T09:22:04Z</time></trkpt><trkpt lat="51.9331387337" lon="-2.0245274249"><ele>310.64</ele><time>2014-08-13T09:22:10Z</time></trkpt><trkpt lat="51.9330757018" lon="-2.0245032851"><ele>310.64</ele><time>2014-08-13T09:22:15Z</time></trkpt><trkpt lat="51.9329559244" lon="-2.0244783070"><ele>310.64</ele><time>2014-08-13T09:22:25Z</time></trkpt><trkpt lat="51.9327749591" lon="-2.0244800672"><ele>311.60</ele><time>2014-08-13T09:22:43Z</time></trkpt><trkpt lat="51.9326439500" lon="-2.0244388282"><ele>310.64</ele><time>2014-08-13T09:22:59Z</time></trkpt><trkpt lat="51.9325201493" lon="-2.0243744552"><ele>311.12</ele><time>2014-08-13T09:23:14Z</time></trkpt><trkpt lat="51.9324063230" lon="-2.0243281871"><ele>310.64</ele><time>2014-08-13T09:23:29Z</time></trkpt><trkpt lat="51.9323883858" lon="-2.0243155304"><ele>310.64</ele><time>2014-08-13T09:23:31Z</time></trkpt><trkpt lat="51.9323156308" lon="-2.0242909715"><ele>310.64</ele><time>2014-08-13T09:23:39Z</time></trkpt><trkpt lat="51.9322095159" lon="-2.0242431108"><ele>311.12</ele><time>2014-08-13T09:23:57Z</time></trkpt><trkpt lat="51.9321560394" lon="-2.0242316276"><ele>310.16</ele><time>2014-08-13T09:24:12Z</time></trkpt><trkpt lat="51.9320683647" lon="-2.0242506545"><ele>309.68</ele><time>2014-08-13T09:24:21Z</time></trkpt><trkpt lat="51.9319837913" lon="-2.0242519956"><ele>309.68</ele><time>2014-08-13T09:24:30Z</time></trkpt><trkpt lat="51.9319571368" lon="-2.0242541749"><ele>309.68</ele><time>2014-08-13T09:24:33Z</time></trkpt><trkpt lat="51.9318267144" lon="-2.0242597908"><ele>311.12</ele><time>2014-08-13T09:24:46Z</time></trkpt><trkpt lat="51.9317403808" lon="-2.0242649037"><ele>310.64</ele><time>2014-08-13T09:24:54Z</time></trkpt><trkpt lat="51.9316573162" lon="-2.0242780633"><ele>309.68</ele><time>2014-08-13T09:25:02Z</time></trkpt><trkpt lat="51.9316359423" lon="-2.0242835116"><ele>310.64</ele><time>2014-08-13T09:25:04Z</time></trkpt><trkpt lat="51.9316249620" lon="-2.0242851041"><ele>310.16</ele><time>2014-08-13T09:25:05Z</time></trkpt><trkpt lat="51.9315481838" lon="-2.0242631435"><ele>312.57</ele><time>2014-08-13T09:25:19Z</time></trkpt><trkpt lat="51.9314438291" lon="-2.0242721122"><ele>313.05</ele><time>2014-08-13T09:25:31Z</time></trkpt><trkpt lat="51.9313057791" lon="-2.0242865290"><ele>313.05</ele><time>2014-08-13T09:25:45Z</time></trkpt><trkpt lat="51.9311964791" lon="-2.0243643969"><ele>312.57</ele><time>2014-08-13T09:25:58Z</time></trkpt><trkpt lat="51.9311756082" lon="-2.0243799873"><ele>312.57</ele><time>2014-08-13T09:26:00Z</time></trkpt><trkpt lat="51.9311340339" lon="-2.0244037919"><ele>312.09</ele><time>2014-08-13T09:26:05Z</time></trkpt><trkpt lat="51.9310503826" lon="-2.0244929753"><ele>311.12</ele><time>2014-08-13T09:26:17Z</time></trkpt><trkpt lat="51.9309093151" lon="-2.0246180333"><ele>311.60</ele><time>2014-08-13T09:26:32Z</time></trkpt><trkpt lat="51.9308223110" lon="-2.0246695820"><ele>313.05</ele><time>2014-08-13T09:26:42Z</time></trkpt><trkpt lat="51.9307957403" lon="-2.0247048698"><ele>314.01</ele><time>2014-08-13T09:26:54Z</time></trkpt><trkpt lat="51.9308002666" lon="-2.0247063786"><ele>314.01</ele><time>2014-08-13T09:27:13Z</time></trkpt><trkpt lat="51.9307256676" lon="-2.0247153472"><ele>314.97</ele><time>2014-08-13T09:27:27Z</time></trkpt><trkpt lat="51.9306276832" lon="-2.0247283392"><ele>314.97</ele><time>2014-08-13T09:27:39Z</time></trkpt><trkpt lat="51.9305901323" lon="-2.0247383974"><ele>315.45</ele><time>2014-08-13T09:27:43Z</time></trkpt><trkpt lat="51.9304484781" lon="-2.0247733500"><ele>315.93</ele><time>2014-08-13T09:27:58Z</time></trkpt><trkpt lat="51.9303486496" lon="-2.0247500483"><ele>315.93</ele><time>2014-08-13T09:28:11Z</time></trkpt><trkpt lat="51.9303275272" lon="-2.0247456059"><ele>312.57</ele><time>2014-08-13T09:28:15Z</time></trkpt><trkpt lat="51.9303050637" lon="-2.0247408282"><ele>314.97</ele><time>2014-08-13T09:28:20Z</time></trkpt><trkpt lat="51.9302836061" lon="-2.0247395709"><ele>314.01</ele><time>2014-08-13T09:28:30Z</time></trkpt><trkpt lat="51.9301073346" lon="-2.0246664807"><ele>313.53</ele><time>2014-08-13T09:28:46Z</time></trkpt><trkpt lat="51.9301047362" lon="-2.0246679895"><ele>311.60</ele><time>2014-08-13T09:29:06Z</time></trkpt><trkpt lat="51.9300245214" lon="-2.0246363897"><ele>311.12</ele><time>2014-08-13T09:29:19Z</time></trkpt><trkpt lat="51.9300261140" lon="-2.0246412512"><ele>311.60</ele><time>2014-08-13T09:29:45Z</time></trkpt><trkpt lat="51.9299972802" lon="-2.0246281754"><ele>311.60</ele><time>2014-08-13T09:30:02Z</time></trkpt><trkpt lat="51.9299029000" lon="-2.0245798957"><ele>309.68</ele><time>2014-08-13T09:30:17Z</time></trkpt><trkpt lat="51.9297069311" lon="-2.0245472901"><ele>310.16</ele><time>2014-08-13T09:30:32Z</time></trkpt><trkpt lat="51.9296283089" lon="-2.0245416742"><ele>310.16</ele><time>2014-08-13T09:30:46Z</time></trkpt><trkpt lat="51.9296311587" lon="-2.0245381538"><ele>309.68</ele><time>2014-08-13T09:31:10Z</time></trkpt><trkpt lat="51.9296257943" lon="-2.0245378185"><ele>309.20</ele><time>2014-08-13T09:31:36Z</time></trkpt><trkpt lat="51.9295644388" lon="-2.0244970825"><ele>306.80</ele><time>2014-08-13T09:31:41Z</time></trkpt><trkpt lat="51.9295559730" lon="-2.0244912151"><ele>312.09</ele><time>2014-08-13T09:31:43Z</time></trkpt><trkpt lat="51.9295558054" lon="-2.0244917180"><ele>311.60</ele><time>2014-08-13T09:31:44Z</time></trkpt><trkpt lat="51.9295282289" lon="-2.0244884491"><ele>309.20</ele><time>2014-08-13T09:32:08Z</time></trkpt><trkpt lat="51.9295278098" lon="-2.0244874433"><ele>309.20</ele><time>2014-08-13T09:32:09Z</time></trkpt><trkpt lat="51.9295036700" lon="-2.0244718529"><ele>309.68</ele><time>2014-08-13T09:32:15Z</time></trkpt><trkpt lat="51.9293858204" lon="-2.0244139340"><ele>308.72</ele><time>2014-08-13T09:32:25Z</time></trkpt><trkpt lat="51.9293136522" lon="-2.0243990142"><ele>311.12</ele><time>2014-08-13T09:32:31Z</time></trkpt><trkpt lat="51.9291941263" lon="-2.0243450347"><ele>309.20</ele><time>2014-08-13T09:32:40Z</time></trkpt><trkpt lat="51.9290421624" lon="-2.0242120139"><ele>310.16</ele><time>2014-08-13T09:32:54Z</time></trkpt><trkpt lat="51.9290155917" lon="-2.0242091641"><ele>311.12</ele><time>2014-08-13T09:32:56Z</time></trkpt><trkpt lat="51.9289268274" lon="-2.0241834316"><ele>309.20</ele><time>2014-08-13T09:33:05Z</time></trkpt><trkpt lat="51.9289041124" lon="-2.0241763908"><ele>307.76</ele><time>2014-08-13T09:33:07Z</time></trkpt><trkpt lat="51.9287736900" lon="-2.0241781510"><ele>306.80</ele><time>2014-08-13T09:33:19Z</time></trkpt><trkpt lat="51.9287604466" lon="-2.0241804980"><ele>306.80</ele><time>2014-08-13T09:33:20Z</time></trkpt><trkpt lat="51.9285889529" lon="-2.0241181366"><ele>305.84</ele><time>2014-08-13T09:33:35Z</time></trkpt><trkpt lat="51.9285503123" lon="-2.0241089165"><ele>307.76</ele><time>2014-08-13T09:33:38Z</time></trkpt><trkpt lat="51.9284555130" lon="-2.0240766462"><ele>306.80</ele><time>2014-08-13T09:33:52Z</time></trkpt><trkpt lat="51.9283975102" lon="-2.0240500756"><ele>307.28</ele><time>2014-08-13T09:33:57Z</time></trkpt><trkpt lat="51.9282576162" lon="-2.0239183959"><ele>304.88</ele><time>2014-08-13T09:34:11Z</time></trkpt><trkpt lat="51.9280730467" lon="-2.0237763226"><ele>302.95</ele><time>2014-08-13T09:34:26Z</time></trkpt><trkpt lat="51.9278928358" lon="-2.0236469898"><ele>301.51</ele><time>2014-08-13T09:34:41Z</time></trkpt><trkpt lat="51.9277159777" lon="-2.0235095266"><ele>299.59</ele><time>2014-08-13T09:34:56Z</time></trkpt><trkpt lat="51.9275692943" lon="-2.0233787689"><ele>298.15</ele><time>2014-08-13T09:35:09Z</time></trkpt><trkpt lat="51.9273993094" lon="-2.0232335944"><ele>296.70</ele><time>2014-08-13T09:35:23Z</time></trkpt><trkpt lat="51.9272260554" lon="-2.0230987296"><ele>296.70</ele><time>2014-08-13T09:35:38Z</time></trkpt><trkpt lat="51.9271096308" lon="-2.0230021700"><ele>296.70</ele><time>2014-08-13T09:35:52Z</time></trkpt><trkpt lat="51.9271133188" lon="-2.0230042655"><ele>297.18</ele><time>2014-08-13T09:36:01Z</time></trkpt><trkpt lat="51.9269956369" lon="-2.0228164271"><ele>296.70</ele><time>2014-08-13T09:36:14Z</time></trkpt><trkpt lat="51.9269121531" lon="-2.0226244815"><ele>296.22</ele><time>2014-08-13T09:36:26Z</time></trkpt><trkpt lat="51.9268812239" lon="-2.0225804765"><ele>300.07</ele><time>2014-08-13T09:36:31Z</time></trkpt><trkpt lat="51.9268809725" lon="-2.0225798897"><ele>299.59</ele><time>2014-08-13T09:36:32Z</time></trkpt><trkpt lat="51.9268802181" lon="-2.0225746930"><ele>299.59</ele><time>2014-08-13T09:36:50Z</time></trkpt><trkpt lat="51.9268798828" lon="-2.0225800574"><ele>300.07</ele><time>2014-08-13T09:37:11Z</time></trkpt><trkpt lat="51.9268798828" lon="-2.0225812308"><ele>299.59</ele><time>2014-08-13T09:37:13Z</time></trkpt><trkpt lat="51.9268755242" lon="-2.0225740224"><ele>297.18</ele><time>2014-08-13T09:37:30Z</time></trkpt><trkpt lat="51.9267888553" lon="-2.0224816538"><ele>297.18</ele><time>2014-08-13T09:37:41Z</time></trkpt><trkpt lat="51.9267002586" lon="-2.0223134290"><ele>296.70</ele><time>2014-08-13T09:37:54Z</time></trkpt><trkpt lat="51.9266211335" lon="-2.0222065598"><ele>298.63</ele><time>2014-08-13T09:38:07Z</time></trkpt><trkpt lat="51.9266210496" lon="-2.0222068951"><ele>298.63</ele><time>2014-08-13T09:38:08Z</time></trkpt><trkpt lat="51.9265992567" lon="-2.0221592020"><ele>297.18</ele><time>2014-08-13T09:38:27Z</time></trkpt><trkpt lat="51.9265933894" lon="-2.0221463777"><ele>297.67</ele><time>2014-08-13T09:38:28Z</time></trkpt><trkpt lat="51.9265332073" lon="-2.0220297016"><ele>295.74</ele><time>2014-08-13T09:38:36Z</time></trkpt><trkpt lat="51.9264091551" lon="-2.0218344871"><ele>295.26</ele><time>2014-08-13T09:38:49Z</time></trkpt><trkpt lat="51.9262821693" lon="-2.0216164738"><ele>295.26</ele><time>2014-08-13T09:39:04Z</time></trkpt><trkpt lat="51.9261608832" lon="-2.0213945210"><ele>295.26</ele><time>2014-08-13T09:39:19Z</time></trkpt><trkpt lat="51.9260716997" lon="-2.0211823750"><ele>296.22</ele><time>2014-08-13T09:39:33Z</time></trkpt><trkpt lat="51.9259546883" lon="-2.0209134836"><ele>295.74</ele><time>2014-08-13T09:39:48Z</time></trkpt><trkpt lat="51.9258628227" lon="-2.0207144134"><ele>294.30</ele><time>2014-08-13T09:40:00Z</time></trkpt><trkpt lat="51.9257764053" lon="-2.0204829890"><ele>293.82</ele><time>2014-08-13T09:40:15Z</time></trkpt><trkpt lat="51.9256988727" lon="-2.0202669036"><ele>294.30</ele><time>2014-08-13T09:40:28Z</time></trkpt><trkpt lat="51.9256342482" lon="-2.0200829208"><ele>293.82</ele><time>2014-08-13T09:40:41Z</time></trkpt><trkpt lat="51.9255676959" lon="-2.0198952500"><ele>293.82</ele><time>2014-08-13T09:40:55Z</time></trkpt><trkpt lat="51.9255174883" lon="-2.0197140332"><ele>293.34</ele><time>2014-08-13T09:41:08Z</time></trkpt><trkpt lat="51.9254827872" lon="-2.0196562819"><ele>293.82</ele><time>2014-08-13T09:41:15Z</time></trkpt><trkpt lat="51.9254127145" lon="-2.0194669347"><ele>294.78</ele><time>2014-08-13T09:41:30Z</time></trkpt><trkpt lat="51.9253597409" lon="-2.0193051640"><ele>294.30</ele><time>2014-08-13T09:41:42Z</time></trkpt><trkpt lat="51.9252995588" lon="-2.0190899167"><ele>294.78</ele><time>2014-08-13T09:41:58Z</time></trkpt><trkpt lat="51.9252471719" lon="-2.0188874938"><ele>294.30</ele><time>2014-08-13T09:42:13Z</time></trkpt><trkpt lat="51.9251914322" lon="-2.0186839812"><ele>294.78</ele><time>2014-08-13T09:42:28Z</time></trkpt><trkpt lat="51.9251238741" lon="-2.0184822287"><ele>295.74</ele><time>2014-08-13T09:42:43Z</time></trkpt><trkpt lat="51.9250721578" lon="-2.0182391535"><ele>296.70</ele><time>2014-08-13T09:42:58Z</time></trkpt><trkpt lat="51.9250164181" lon="-2.0180208888"><ele>297.67</ele><time>2014-08-13T09:43:12Z</time></trkpt><trkpt lat="51.9249541406" lon="-2.0177791547"><ele>299.11</ele><time>2014-08-13T09:43:27Z</time></trkpt><trkpt lat="51.9249434955" lon="-2.0177238341"><ele>299.11</ele><time>2014-08-13T09:43:30Z</time></trkpt><trkpt lat="51.9248894323" lon="-2.0175905619"><ele>300.07</ele><time>2014-08-13T09:43:43Z</time></trkpt><trkpt lat="51.9248222932" lon="-2.0173705369"><ele>303.43</ele><time>2014-08-13T09:43:57Z</time></trkpt><trkpt lat="51.9248048589" lon="-2.0172771625"><ele>303.91</ele><time>2014-08-13T09:44:03Z</time></trkpt><trkpt lat="51.9247845747" lon="-2.0171137154"><ele>304.88</ele><time>2014-08-13T09:44:12Z</time></trkpt><trkpt lat="51.9247351214" lon="-2.0168637671"><ele>305.36</ele><time>2014-08-13T09:44:27Z</time></trkpt><trkpt lat="51.9246811420" lon="-2.0165938698"><ele>306.32</ele><time>2014-08-13T09:44:42Z</time></trkpt><trkpt lat="51.9246126618" lon="-2.0163181052"><ele>307.76</ele><time>2014-08-13T09:44:57Z</time></trkpt><trkpt lat="51.9245493785" lon="-2.0160912909"><ele>309.20</ele><time>2014-08-13T09:45:10Z</time></trkpt><trkpt lat="51.9244993385" lon="-2.0158053841"><ele>311.60</ele><time>2014-08-13T09:45:26Z</time></trkpt><trkpt lat="51.9244716782" lon="-2.0156557672"><ele>313.05</ele><time>2014-08-13T09:45:39Z</time></trkpt><trkpt lat="51.9244718459" lon="-2.0156633109"><ele>312.57</ele><time>2014-08-13T09:46:04Z</time></trkpt><trkpt lat="51.9244310260" lon="-2.0155835152"><ele>313.53</ele><time>2014-08-13T09:46:16Z</time></trkpt><trkpt lat="51.9244158547" lon="-2.0155534241"><ele>314.01</ele><time>2014-08-13T09:46:51Z</time></trkpt><trkpt lat="51.9244125858" lon="-2.0155422762"><ele>313.53</ele><time>2014-08-13T09:46:52Z</time></trkpt><trkpt lat="51.9243719336" lon="-2.0154478960"><ele>314.01</ele><time>2014-08-13T09:47:02Z</time></trkpt><trkpt lat="51.9242301956" lon="-2.0152601413"><ele>312.57</ele><time>2014-08-13T09:47:17Z</time></trkpt><trkpt lat="51.9240846857" lon="-2.0150764100"><ele>314.01</ele><time>2014-08-13T09:47:31Z</time></trkpt><trkpt lat="51.9239830971" lon="-2.0148507692"><ele>314.01</ele><time>2014-08-13T09:47:44Z</time></trkpt><trkpt lat="51.9239069056" lon="-2.0145848114"><ele>313.53</ele><time>2014-08-13T09:47:57Z</time></trkpt><trkpt lat="51.9238301273" lon="-2.0143788680"><ele>313.05</ele><time>2014-08-13T09:48:10Z</time></trkpt><trkpt lat="51.9237960130" lon="-2.0142257307"><ele>314.01</ele><time>2014-08-13T09:48:23Z</time></trkpt><trkpt lat="51.9237586297" lon="-2.0140812267"><ele>317.37</ele><time>2014-08-13T09:48:32Z</time></trkpt><trkpt lat="51.9236905687" lon="-2.0138482098"><ele>320.74</ele><time>2014-08-13T09:48:45Z</time></trkpt><trkpt lat="51.9236826058" lon="-2.0138311107"><ele>320.74</ele><time>2014-08-13T09:48:46Z</time></trkpt><trkpt lat="51.9236541074" lon="-2.0137122553"><ele>321.22</ele><time>2014-08-13T09:48:53Z</time></trkpt><trkpt lat="51.9236366730" lon="-2.0136539172"><ele>322.66</ele><time>2014-08-13T09:48:56Z</time></trkpt><trkpt lat="51.9236081745" lon="-2.0135663263"><ele>323.62</ele><time>2014-08-13T09:49:01Z</time></trkpt><trkpt lat="51.9235256966" lon="-2.0132501610"><ele>326.02</ele><time>2014-08-13T09:49:19Z</time></trkpt><trkpt lat="51.9234462362" lon="-2.0129268710"><ele>326.50</ele><time>2014-08-13T09:49:36Z</time></trkpt><trkpt lat="51.9234396983" lon="-2.0129118674"><ele>326.50</ele><time>2014-08-13T09:49:37Z</time></trkpt><trkpt lat="51.9233946875" lon="-2.0127855521"><ele>327.95</ele><time>2014-08-13T09:49:45Z</time></trkpt><trkpt lat="51.9233886525" lon="-2.0127536170"><ele>327.95</ele><time>2014-08-13T09:49:59Z</time></trkpt><trkpt lat="51.9233879820" lon="-2.0127432235"><ele>327.95</ele><time>2014-08-13T09:50:28Z</time></trkpt><trkpt lat="51.9233882334" lon="-2.0127319917"><ele>327.95</ele><time>2014-08-13T09:50:42Z</time></trkpt><trkpt lat="51.9233702961" lon="-2.0126796048"><ele>327.47</ele><time>2014-08-13T09:50:59Z</time></trkpt><trkpt lat="51.9232751615" lon="-2.0124551374"><ele>326.99</ele><time>2014-08-13T09:51:13Z</time></trkpt><trkpt lat="51.9232269656" lon="-2.0123684686"><ele>327.95</ele><time>2014-08-13T09:51:20Z</time></trkpt><trkpt lat="51.9232124649" lon="-2.0123372879"><ele>327.47</ele><time>2014-08-13T09:51:22Z</time></trkpt><trkpt lat="51.9231581502" lon="-2.0122226235"><ele>327.47</ele><time>2014-08-13T09:51:31Z</time></trkpt><trkpt lat="51.9230720680" lon="-2.0120963920"><ele>327.47</ele><time>2014-08-13T09:51:46Z</time></trkpt><trkpt lat="51.9230529573" lon="-2.0120577514"><ele>327.47</ele><time>2014-08-13T09:51:55Z</time></trkpt><trkpt lat="51.9229424000" lon="-2.0118303504"><ele>326.99</ele><time>2014-08-13T09:52:11Z</time></trkpt><trkpt lat="51.9229185954" lon="-2.0118354633"><ele>327.47</ele><time>2014-08-13T09:52:31Z</time></trkpt><trkpt lat="51.9229208585" lon="-2.0118334517"><ele>326.99</ele><time>2014-08-13T09:53:06Z</time></trkpt><trkpt lat="51.9229194336" lon="-2.0118332002"><ele>327.47</ele><time>2014-08-13T09:53:28Z</time></trkpt><trkpt lat="51.9229204394" lon="-2.0118324459"><ele>326.99</ele><time>2014-08-13T09:53:56Z</time></trkpt><trkpt lat="51.9229206070" lon="-2.0118339546"><ele>326.50</ele><time>2014-08-13T09:54:28Z</time></trkpt><trkpt lat="51.9229170866" lon="-2.0117679890"><ele>326.02</ele><time>2014-08-13T09:54:45Z</time></trkpt><trkpt lat="51.9228963833" lon="-2.0117068850"><ele>326.50</ele><time>2014-08-13T09:54:49Z</time></trkpt><trkpt lat="51.9228548091" lon="-2.0115735289"><ele>326.50</ele><time>2014-08-13T09:54:59Z</time></trkpt><trkpt lat="51.9228185154" lon="-2.0115046296"><ele>327.47</ele><time>2014-08-13T09:55:13Z</time></trkpt><trkpt lat="51.9228124805" lon="-2.0114913862"><ele>326.50</ele><time>2014-08-13T09:55:14Z</time></trkpt><trkpt lat="51.9227250572" lon="-2.0113088284"><ele>327.47</ele><time>2014-08-13T09:55:27Z</time></trkpt><trkpt lat="51.9226508774" lon="-2.0111361612"><ele>327.47</ele><time>2014-08-13T09:55:40Z</time></trkpt><trkpt lat="51.9226343650" lon="-2.0110990293"><ele>327.47</ele><time>2014-08-13T09:55:43Z</time></trkpt><trkpt lat="51.9226191938" lon="-2.0110608079"><ele>328.43</ele><time>2014-08-13T09:55:46Z</time></trkpt><trkpt lat="51.9225706626" lon="-2.0109554473"><ele>327.47</ele><time>2014-08-13T09:56:01Z</time></trkpt><trkpt lat="51.9224755280" lon="-2.0107697882"><ele>327.95</ele><time>2014-08-13T09:56:17Z</time></trkpt><trkpt lat="51.9224627037" lon="-2.0107463188"><ele>327.47</ele><time>2014-08-13T09:56:19Z</time></trkpt><trkpt lat="51.9223664794" lon="-2.0105941873"><ele>326.99</ele><time>2014-08-13T09:56:33Z</time></trkpt><trkpt lat="51.9223538227" lon="-2.0105566364"><ele>327.47</ele><time>2014-08-13T09:56:36Z</time></trkpt><trkpt lat="51.9222570118" lon="-2.0103917643"><ele>327.47</ele><time>2014-08-13T09:56:50Z</time></trkpt><trkpt lat="51.9221520703" lon="-2.0102114696"><ele>327.95</ele><time>2014-08-13T09:57:05Z</time></trkpt><trkpt lat="51.9220717717" lon="-2.0100885909"><ele>326.50</ele><time>2014-08-13T09:57:16Z</time></trkpt><trkpt lat="51.9220580254" lon="-2.0100664627"><ele>326.50</ele><time>2014-08-13T09:57:18Z</time></trkpt><trkpt lat="51.9220158644" lon="-2.0100272354"><ele>326.99</ele><time>2014-08-13T09:57:24Z</time></trkpt><trkpt lat="51.9219583645" lon="-2.0099818893"><ele>326.99</ele><time>2014-08-13T09:57:41Z</time></trkpt><trkpt lat="51.9219644833" lon="-2.0099808834"><ele>326.99</ele><time>2014-08-13T09:58:13Z</time></trkpt><trkpt lat="51.9219711889" lon="-2.0099871699"><ele>327.47</ele><time>2014-08-13T09:58:42Z</time></trkpt><trkpt lat="51.9219796546" lon="-2.0099927858"><ele>327.47</ele><time>2014-08-13T09:59:05Z</time></trkpt><trkpt lat="51.9219431095" lon="-2.0098529756"><ele>326.99</ele><time>2014-08-13T09:59:18Z</time></trkpt><trkpt lat="51.9219224900" lon="-2.0097842440"><ele>326.99</ele><time>2014-08-13T09:59:22Z</time></trkpt><trkpt lat="51.9218949135" lon="-2.0097018499"><ele>326.50</ele><time>2014-08-13T09:59:28Z</time></trkpt><trkpt lat="51.9218766410" lon="-2.0096642151"><ele>326.50</ele><time>2014-08-13T09:59:31Z</time></trkpt><trkpt lat="51.9217463862" lon="-2.0094558410"><ele>326.50</ele><time>2014-08-13T09:59:48Z</time></trkpt><trkpt lat="51.9216667581" lon="-2.0093130134"><ele>326.99</ele><time>2014-08-13T10:00:00Z</time></trkpt><trkpt lat="51.9215622358" lon="-2.0091146976"><ele>326.99</ele><time>2014-08-13T10:00:16Z</time></trkpt><trkpt lat="51.9215141237" lon="-2.0090434514"><ele>326.50</ele><time>2014-08-13T10:00:22Z</time></trkpt><trkpt lat="51.9215008803" lon="-2.0090173837"><ele>327.47</ele><time>2014-08-13T10:00:24Z</time></trkpt><trkpt lat="51.9214370102" lon="-2.0088944212"><ele>326.50</ele><time>2014-08-13T10:00:34Z</time></trkpt><trkpt lat="51.9213555381" lon="-2.0087229274"><ele>326.50</ele><time>2014-08-13T10:00:48Z</time></trkpt><trkpt lat="51.9213451445" lon="-2.0086943451"><ele>327.47</ele><time>2014-08-13T10:00:50Z</time></trkpt><trkpt lat="51.9212960266" lon="-2.0086165611"><ele>327.47</ele><time>2014-08-13T10:00:56Z</time></trkpt><trkpt lat="51.9211848825" lon="-2.0083933510"><ele>327.95</ele><time>2014-08-13T10:01:14Z</time></trkpt><trkpt lat="51.9210757501" lon="-2.0081882458"><ele>327.95</ele><time>2014-08-13T10:01:30Z</time></trkpt><trkpt lat="51.9209847227" lon="-2.0080073643"><ele>328.43</ele><time>2014-08-13T10:01:44Z</time></trkpt><trkpt lat="51.9209786039" lon="-2.0079916902"><ele>328.43</ele><time>2014-08-13T10:01:45Z</time></trkpt><trkpt lat="51.9209420588" lon="-2.0079390518"><ele>329.39</ele><time>2014-08-13T10:01:50Z</time></trkpt><trkpt lat="51.9208460022" lon="-2.0077190269"><ele>329.39</ele><time>2014-08-13T10:02:06Z</time></trkpt><trkpt lat="51.9207741693" lon="-2.0075787976"><ele>328.91</ele><time>2014-08-13T10:02:18Z</time></trkpt><trkpt lat="51.9206906855" lon="-2.0074214693"><ele>329.39</ele><time>2014-08-13T10:02:31Z</time></trkpt><trkpt lat="51.9205896836" lon="-2.0072242431"><ele>329.39</ele><time>2014-08-13T10:02:46Z</time></trkpt><trkpt lat="51.9204872567" lon="-2.0070318785"><ele>329.87</ele><time>2014-08-13T10:03:00Z</time></trkpt><trkpt lat="51.9204186928" lon="-2.0068863686"><ele>329.87</ele><time>2014-08-13T10:03:12Z</time></trkpt><trkpt lat="51.9203201216" lon="-2.0066998713"><ele>329.87</ele><time>2014-08-13T10:03:26Z</time></trkpt><trkpt lat="51.9202436786" lon="-2.0065685268"><ele>329.87</ele><time>2014-08-13T10:03:37Z</time></trkpt><trkpt lat="51.9201487955" lon="-2.0063790958"><ele>330.35</ele><time>2014-08-13T10:03:51Z</time></trkpt><trkpt lat="51.9200554211" lon="-2.0061983820"><ele>331.31</ele><time>2014-08-13T10:04:06Z</time></trkpt><trkpt lat="51.9199869409" lon="-2.0060621761"><ele>330.83</ele><time>2014-08-13T10:04:20Z</time></trkpt><trkpt lat="51.9199384935" lon="-2.0059675444"><ele>330.83</ele><time>2014-08-13T10:04:33Z</time></trkpt><trkpt lat="51.9198742881" lon="-2.0058438275"><ele>330.35</ele><time>2014-08-13T10:04:49Z</time></trkpt><trkpt lat="51.9198719412" lon="-2.0058400556"><ele>330.83</ele><time>2014-08-13T10:05:13Z</time></trkpt><trkpt lat="51.9198783115" lon="-2.0058484375"><ele>330.35</ele><time>2014-08-13T10:05:26Z</time></trkpt><trkpt lat="51.9198775571" lon="-2.0058492757"><ele>330.35</ele><time>2014-08-13T10:05:52Z</time></trkpt><trkpt lat="51.9198762998" lon="-2.0058468450"><ele>330.35</ele><time>2014-08-13T10:06:20Z</time></trkpt><trkpt lat="51.9198761322" lon="-2.0058459230"><ele>326.02</ele><time>2014-08-13T10:06:32Z</time></trkpt><trkpt lat="51.9198761322" lon="-2.0058460068"><ele>331.31</ele><time>2014-08-13T10:06:33Z</time></trkpt><trkpt lat="51.9198731147" lon="-2.0058469288"><ele>327.47</ele><time>2014-08-13T10:06:58Z</time></trkpt><trkpt lat="51.9198730309" lon="-2.0058469288"><ele>330.83</ele><time>2014-08-13T10:06:59Z</time></trkpt><trkpt lat="51.9198734500" lon="-2.0058496110"><ele>330.35</ele><time>2014-08-13T10:07:23Z</time></trkpt><trkpt lat="51.9198750425" lon="-2.0058458392"><ele>329.87</ele><time>2014-08-13T10:07:57Z</time></trkpt><trkpt lat="51.9198751263" lon="-2.0058462583"><ele>330.35</ele><time>2014-08-13T10:08:21Z</time></trkpt><trkpt lat="51.9198757969" lon="-2.0058465935"><ele>329.87</ele><time>2014-08-13T10:08:52Z</time></trkpt><trkpt lat="51.9198748749" lon="-2.0058489405"><ele>330.35</ele><time>2014-08-13T10:09:15Z</time></trkpt><trkpt lat="51.9198788982" lon="-2.0058493596"><ele>330.35</ele><time>2014-08-13T10:09:37Z</time></trkpt><trkpt lat="51.9198820833" lon="-2.0058486890"><ele>330.35</ele><time>2014-08-13T10:10:10Z</time></trkpt><trkpt lat="51.9198839273" lon="-2.0058485214"><ele>329.39</ele><time>2014-08-13T10:10:40Z</time></trkpt><trkpt lat="51.9198835082" lon="-2.0058497787"><ele>329.87</ele><time>2014-08-13T10:11:11Z</time></trkpt><trkpt lat="51.9198733661" lon="-2.0058333501"><ele>329.87</ele><time>2014-08-13T10:11:31Z</time></trkpt><trkpt lat="51.9198772218" lon="-2.0058305841"><ele>330.35</ele><time>2014-08-13T10:11:51Z</time></trkpt><trkpt lat="51.9198709354" lon="-2.0058305003"><ele>330.35</ele><time>2014-08-13T10:12:18Z</time></trkpt><trkpt lat="51.9198688399" lon="-2.0058365352"><ele>330.35</ele><time>2014-08-13T10:12:39Z</time></trkpt><trkpt lat="51.9198740367" lon="-2.0058382954"><ele>326.50</ele><time>2014-08-13T10:12:50Z</time></trkpt><trkpt lat="51.9198739529" lon="-2.0058381278"><ele>331.79</ele><time>2014-08-13T10:12:52Z</time></trkpt><trkpt lat="51.9198739529" lon="-2.0058380440"><ele>328.43</ele><time>2014-08-13T10:12:53Z</time></trkpt><trkpt lat="51.9199211430" lon="-2.0058294944"><ele>329.87</ele><time>2014-08-13T10:13:09Z</time></trkpt><trkpt lat="51.9200405851" lon="-2.0057687256"><ele>329.39</ele><time>2014-08-13T10:13:24Z</time></trkpt><trkpt lat="51.9201379828" lon="-2.0057366230"><ele>329.87</ele><time>2014-08-13T10:13:34Z</time></trkpt><trkpt lat="51.9202602748" lon="-2.0056831464"><ele>329.87</ele><time>2014-08-13T10:13:47Z</time></trkpt><trkpt lat="51.9204219617" lon="-2.0056329388"><ele>329.87</ele><time>2014-08-13T10:14:04Z</time></trkpt><trkpt lat="51.9205569103" lon="-2.0055834018"><ele>329.87</ele><time>2014-08-13T10:14:18Z</time></trkpt><trkpt lat="51.9207086228" lon="-2.0055326074"><ele>329.39</ele><time>2014-08-13T10:14:33Z</time></trkpt><trkpt lat="51.9208527077" lon="-2.0055111498"><ele>329.39</ele><time>2014-08-13T10:14:47Z</time></trkpt><trkpt lat="51.9209957868" lon="-2.0054816455"><ele>329.39</ele><time>2014-08-13T10:15:01Z</time></trkpt><trkpt lat="51.9211316574" lon="-2.0054584276"><ele>328.91</ele><time>2014-08-13T10:15:13Z</time></trkpt><trkpt lat="51.9211708009" lon="-2.0054577570"><ele>328.91</ele><time>2014-08-13T10:15:17Z</time></trkpt><trkpt lat="51.9212988764" lon="-2.0054665580"><ele>328.91</ele><time>2014-08-13T10:15:27Z</time></trkpt><trkpt lat="51.9213600643" lon="-2.0054903626"><ele>328.91</ele><time>2014-08-13T10:15:33Z</time></trkpt><trkpt lat="51.9214074221" lon="-2.0054810587"><ele>328.91</ele><time>2014-08-13T10:15:39Z</time></trkpt><trkpt lat="51.9214607310" lon="-2.0054858364"><ele>329.39</ele><time>2014-08-13T10:15:43Z</time></trkpt><trkpt lat="51.9215149619" lon="-2.0054741018"><ele>328.43</ele><time>2014-08-13T10:15:48Z</time></trkpt><trkpt lat="51.9216843601" lon="-2.0054984931"><ele>328.43</ele><time>2014-08-13T10:16:02Z</time></trkpt><trkpt lat="51.9218435325" lon="-2.0055136643"><ele>327.95</ele><time>2014-08-13T10:16:18Z</time></trkpt><trkpt lat="51.9219715241" lon="-2.0055308472"><ele>327.47</ele><time>2014-08-13T10:16:30Z</time></trkpt><trkpt lat="51.9220331311" lon="-2.0055436715"><ele>327.95</ele><time>2014-08-13T10:16:38Z</time></trkpt><trkpt lat="51.9220532477" lon="-2.0055407379"><ele>327.95</ele><time>2014-08-13T10:16:40Z</time></trkpt><trkpt lat="51.9222347159" lon="-2.0055585075"><ele>326.99</ele><time>2014-08-13T10:16:56Z</time></trkpt><trkpt lat="51.9223132543" lon="-2.0055663865"><ele>326.99</ele><time>2014-08-13T10:17:02Z</time></trkpt><trkpt lat="51.9225077983" lon="-2.0056215394"><ele>326.50</ele><time>2014-08-13T10:17:20Z</time></trkpt><trkpt lat="51.9225230534" lon="-2.0056210365"><ele>326.99</ele><time>2014-08-13T10:17:22Z</time></trkpt><trkpt lat="51.9225943834" lon="-2.0056394767"><ele>326.99</ele><time>2014-08-13T10:17:28Z</time></trkpt><trkpt lat="51.9227640331" lon="-2.0057511237"><ele>327.47</ele><time>2014-08-13T10:17:46Z</time></trkpt><trkpt lat="51.9229065254" lon="-2.0058779418"><ele>327.47</ele><time>2014-08-13T10:18:00Z</time></trkpt><trkpt lat="51.9229620136" lon="-2.0059330948"><ele>328.43</ele><time>2014-08-13T10:18:06Z</time></trkpt><trkpt lat="51.9229921885" lon="-2.0059631020"><ele>326.50</ele><time>2014-08-13T10:18:09Z</time></trkpt><trkpt lat="51.9231231138" lon="-2.0061295666"><ele>326.99</ele><time>2014-08-13T10:18:25Z</time></trkpt><trkpt lat="51.9231498521" lon="-2.0061543770"><ele>326.99</ele><time>2014-08-13T10:18:28Z</time></trkpt><trkpt lat="51.9231778476" lon="-2.0062067639"><ele>326.99</ele><time>2014-08-13T10:18:32Z</time></trkpt><trkpt lat="51.9233045820" lon="-2.0064023137"><ele>326.50</ele><time>2014-08-13T10:18:47Z</time></trkpt><trkpt lat="51.9233909994" lon="-2.0065724663"><ele>327.47</ele><time>2014-08-13T10:18:59Z</time></trkpt><trkpt lat="51.9234149717" lon="-2.0066449698"><ele>327.47</ele><time>2014-08-13T10:19:04Z</time></trkpt><trkpt lat="51.9234533608" lon="-2.0068173856"><ele>327.95</ele><time>2014-08-13T10:19:15Z</time></trkpt><trkpt lat="51.9234656822" lon="-2.0068536792"><ele>326.99</ele><time>2014-08-13T10:19:17Z</time></trkpt><trkpt lat="51.9235437177" lon="-2.0071213972"><ele>326.99</ele><time>2014-08-13T10:19:33Z</time></trkpt><trkpt lat="51.9235969428" lon="-2.0073142648"><ele>326.50</ele><time>2014-08-13T10:19:45Z</time></trkpt><trkpt lat="51.9236067496" lon="-2.0073718484"><ele>326.02</ele><time>2014-08-13T10:19:49Z</time></trkpt><trkpt lat="51.9236792531" lon="-2.0075925440"><ele>326.50</ele><time>2014-08-13T10:20:03Z</time></trkpt><trkpt lat="51.9237437099" lon="-2.0078010857"><ele>326.02</ele><time>2014-08-13T10:20:16Z</time></trkpt><trkpt lat="51.9237728789" lon="-2.0079139061"><ele>326.02</ele><time>2014-08-13T10:20:24Z</time></trkpt><trkpt lat="51.9238421973" lon="-2.0081534609"><ele>326.50</ele><time>2014-08-13T10:20:39Z</time></trkpt><trkpt lat="51.9239178859" lon="-2.0083652716"><ele>326.50</ele><time>2014-08-13T10:20:53Z</time></trkpt><trkpt lat="51.9239228312" lon="-2.0083889924"><ele>326.02</ele><time>2014-08-13T10:20:55Z</time></trkpt><trkpt lat="51.9239582866" lon="-2.0085241925"><ele>326.02</ele><time>2014-08-13T10:21:03Z</time></trkpt><trkpt lat="51.9240224920" lon="-2.0087475702"><ele>326.02</ele><time>2014-08-13T10:21:17Z</time></trkpt><trkpt lat="51.9240594562" lon="-2.0089029707"><ele>326.02</ele><time>2014-08-13T10:21:26Z</time></trkpt><trkpt lat="51.9241433591" lon="-2.0091450401"><ele>325.54</ele><time>2014-08-13T10:21:41Z</time></trkpt><trkpt lat="51.9242187962" lon="-2.0093938988"><ele>325.06</ele><time>2014-08-13T10:21:57Z</time></trkpt><trkpt lat="51.9242353085" lon="-2.0094436873"><ele>325.54</ele><time>2014-08-13T10:22:01Z</time></trkpt><trkpt lat="51.9242426008" lon="-2.0094781369"><ele>325.06</ele><time>2014-08-13T10:22:03Z</time></trkpt><trkpt lat="51.9243112486" lon="-2.0097304322"><ele>324.58</ele><time>2014-08-13T10:22:18Z</time></trkpt><trkpt lat="51.9243517332" lon="-2.0098556578"><ele>324.58</ele><time>2014-08-13T10:22:27Z</time></trkpt><trkpt lat="51.9243805669" lon="-2.0099294186"><ele>325.06</ele><time>2014-08-13T10:22:39Z</time></trkpt><trkpt lat="51.9244360551" lon="-2.0101742540"><ele>323.62</ele><time>2014-08-13T10:22:54Z</time></trkpt><trkpt lat="51.9244741928" lon="-2.0103175845"><ele>323.62</ele><time>2014-08-13T10:23:05Z</time></trkpt><trkpt lat="51.9244942255" lon="-2.0104087796"><ele>323.14</ele><time>2014-08-13T10:23:11Z</time></trkpt><trkpt lat="51.9245577604" lon="-2.0105786808"><ele>324.10</ele><time>2014-08-13T10:23:22Z</time></trkpt><trkpt lat="51.9246389810" lon="-2.0107760746"><ele>323.14</ele><time>2014-08-13T10:23:34Z</time></trkpt><trkpt lat="51.9246906135" lon="-2.0109098498"><ele>322.18</ele><time>2014-08-13T10:23:44Z</time></trkpt><trkpt lat="51.9247833174" lon="-2.0111162961"><ele>321.70</ele><time>2014-08-13T10:23:58Z</time></trkpt><trkpt lat="51.9248838164" lon="-2.0112926513"><ele>319.78</ele><time>2014-08-13T10:24:11Z</time></trkpt><trkpt lat="51.9249953795" lon="-2.0114540029"><ele>318.81</ele><time>2014-08-13T10:24:24Z</time></trkpt><trkpt lat="51.9250936154" lon="-2.0116264187"><ele>317.85</ele><time>2014-08-13T10:24:38Z</time></trkpt><trkpt lat="51.9251993112" lon="-2.0117905363"><ele>316.89</ele><time>2014-08-13T10:24:52Z</time></trkpt><trkpt lat="51.9252750836" lon="-2.0119093079"><ele>315.93</ele><time>2014-08-13T10:25:04Z</time></trkpt><trkpt lat="51.9253340084" lon="-2.0120047778"><ele>315.45</ele><time>2014-08-13T10:25:13Z</time></trkpt><trkpt lat="51.9253487606" lon="-2.0120290015"><ele>314.97</ele><time>2014-08-13T10:25:15Z</time></trkpt><trkpt lat="51.9254636765" lon="-2.0121667162"><ele>314.01</ele><time>2014-08-13T10:25:30Z</time></trkpt><trkpt lat="51.9255768321" lon="-2.0122975577"><ele>312.57</ele><time>2014-08-13T10:25:44Z</time></trkpt><trkpt lat="51.9257213362" lon="-2.0124454144"><ele>312.57</ele><time>2014-08-13T10:26:01Z</time></trkpt><trkpt lat="51.9257446378" lon="-2.0124677103"><ele>312.09</ele><time>2014-08-13T10:26:04Z</time></trkpt><trkpt lat="51.9259036426" lon="-2.0125682931"><ele>310.64</ele><time>2014-08-13T10:26:20Z</time></trkpt><trkpt lat="51.9260531757" lon="-2.0126890764"><ele>310.16</ele><time>2014-08-13T10:26:36Z</time></trkpt><trkpt lat="51.9261867832" lon="-2.0128010586"><ele>309.68</ele><time>2014-08-13T10:26:51Z</time></trkpt><trkpt lat="51.9263426866" lon="-2.0129162259"><ele>308.72</ele><time>2014-08-13T10:27:08Z</time></trkpt><trkpt lat="51.9264907110" lon="-2.0130134560"><ele>309.20</ele><time>2014-08-13T10:27:25Z</time></trkpt><trkpt lat="51.9266597740" lon="-2.0130992029"><ele>308.24</ele><time>2014-08-13T10:27:41Z</time></trkpt><trkpt lat="51.9267471973" lon="-2.0131569542"><ele>308.24</ele><time>2014-08-13T10:27:51Z</time></trkpt><trkpt lat="51.9268105645" lon="-2.0131871291"><ele>307.76</ele><time>2014-08-13T10:27:57Z</time></trkpt><trkpt lat="51.9269870874" lon="-2.0132968482"><ele>307.28</ele><time>2014-08-13T10:28:15Z</time></trkpt><trkpt lat="51.9271484390" lon="-2.0134088304"><ele>307.28</ele><time>2014-08-13T10:28:32Z</time></trkpt><trkpt lat="51.9273180887" lon="-2.0135006960"><ele>306.80</ele><time>2014-08-13T10:28:48Z</time></trkpt><trkpt lat="51.9273760077" lon="-2.0135229919"><ele>307.76</ele><time>2014-08-13T10:28:54Z</time></trkpt><trkpt lat="51.9275400415" lon="-2.0136075653"><ele>307.28</ele><time>2014-08-13T10:29:11Z</time></trkpt><trkpt lat="51.9276086055" lon="-2.0136392489"><ele>306.80</ele><time>2014-08-13T10:29:17Z</time></trkpt><trkpt lat="51.9278001320" lon="-2.0137323719"><ele>306.32</ele><time>2014-08-13T10:29:35Z</time></trkpt><trkpt lat="51.9279111084" lon="-2.0138095692"><ele>306.32</ele><time>2014-08-13T10:29:46Z</time></trkpt><trkpt lat="51.9280340709" lon="-2.0139008481"><ele>306.80</ele><time>2014-08-13T10:29:58Z</time></trkpt><trkpt lat="51.9281112682" lon="-2.0139482897"><ele>305.84</ele><time>2014-08-13T10:30:05Z</time></trkpt><trkpt lat="51.9282722007" lon="-2.0139905345"><ele>305.84</ele><time>2014-08-13T10:30:19Z</time></trkpt><trkpt lat="51.9284053892" lon="-2.0140714198"><ele>305.36</ele><time>2014-08-13T10:30:31Z</time></trkpt><trkpt lat="51.9285565149" lon="-2.0141760260"><ele>304.88</ele><time>2014-08-13T10:30:47Z</time></trkpt><trkpt lat="51.9286911283" lon="-2.0142926183"><ele>304.88</ele><time>2014-08-13T10:31:03Z</time></trkpt><trkpt lat="51.9287894480" lon="-2.0144039299"><ele>304.88</ele><time>2014-08-13T10:31:18Z</time></trkpt><trkpt lat="51.9287906215" lon="-2.0144040138"><ele>303.91</ele><time>2014-08-13T10:31:20Z</time></trkpt><trkpt lat="51.9288116600" lon="-2.0144173410"><ele>304.88</ele><time>2014-08-13T10:31:23Z</time></trkpt><trkpt lat="51.9289934635" lon="-2.0145297423"><ele>304.88</ele><time>2014-08-13T10:31:38Z</time></trkpt><trkpt lat="51.9291502889" lon="-2.0146160759"><ele>304.88</ele><time>2014-08-13T10:31:52Z</time></trkpt><trkpt lat="51.9292615168" lon="-2.0147008169"><ele>304.88</ele><time>2014-08-13T10:32:04Z</time></trkpt><trkpt lat="51.9292755146" lon="-2.0147147309"><ele>304.39</ele><time>2014-08-13T10:32:06Z</time></trkpt><trkpt lat="51.9293157477" lon="-2.0147627592"><ele>303.91</ele><time>2014-08-13T10:32:10Z</time></trkpt><trkpt lat="51.9294620119" lon="-2.0148826204"><ele>302.95</ele><time>2014-08-13T10:32:25Z</time></trkpt><trkpt lat="51.9294684660" lon="-2.0148901641"><ele>303.43</ele><time>2014-08-13T10:32:26Z</time></trkpt><trkpt lat="51.9295012392" lon="-2.0149186626"><ele>302.95</ele><time>2014-08-13T10:32:29Z</time></trkpt><trkpt lat="51.9296354335" lon="-2.0150678605"><ele>302.47</ele><time>2014-08-13T10:32:43Z</time></trkpt><trkpt lat="51.9297476672" lon="-2.0152257755"><ele>302.47</ele><time>2014-08-13T10:32:56Z</time></trkpt><trkpt lat="51.9298723899" lon="-2.0153782424"><ele>301.51</ele><time>2014-08-13T10:33:10Z</time></trkpt><trkpt lat="51.9300022256" lon="-2.0155623928"><ele>300.07</ele><time>2014-08-13T10:33:25Z</time></trkpt><trkpt lat="51.9300197437" lon="-2.0155948307"><ele>299.59</ele><time>2014-08-13T10:33:31Z</time></trkpt><trkpt lat="51.9300634135" lon="-2.0156445354"><ele>299.59</ele><time>2014-08-13T10:33:37Z</time></trkpt><trkpt lat="51.9301993679" lon="-2.0157887042"><ele>299.59</ele><time>2014-08-13T10:33:51Z</time></trkpt><trkpt lat="51.9303183910" lon="-2.0159068890"><ele>300.07</ele><time>2014-08-13T10:34:04Z</time></trkpt><trkpt lat="51.9303338137" lon="-2.0159222279"><ele>299.11</ele><time>2014-08-13T10:34:06Z</time></trkpt><trkpt lat="51.9304742943" lon="-2.0160161890"><ele>299.11</ele><time>2014-08-13T10:34:20Z</time></trkpt><trkpt lat="51.9305213168" lon="-2.0160432626"><ele>298.63</ele><time>2014-08-13T10:34:26Z</time></trkpt><trkpt lat="51.9307063892" lon="-2.0160827413"><ele>298.63</ele><time>2014-08-13T10:34:43Z</time></trkpt><trkpt lat="51.9308686629" lon="-2.0161194541"><ele>299.11</ele><time>2014-08-13T10:34:58Z</time></trkpt><trkpt lat="51.9308893662" lon="-2.0161281712"><ele>298.63</ele><time>2014-08-13T10:35:01Z</time></trkpt><trkpt lat="51.9309162721" lon="-2.0161378104"><ele>299.11</ele><time>2014-08-13T10:35:04Z</time></trkpt><trkpt lat="51.9310653023" lon="-2.0161967352"><ele>300.07</ele><time>2014-08-13T10:35:18Z</time></trkpt><trkpt lat="51.9311934616" lon="-2.0162355434"><ele>299.59</ele><time>2014-08-13T10:35:31Z</time></trkpt><trkpt lat="51.9312351197" lon="-2.0162583422"><ele>299.59</ele><time>2014-08-13T10:35:35Z</time></trkpt><trkpt lat="51.9313035998" lon="-2.0162794646"><ele>299.11</ele><time>2014-08-13T10:35:41Z</time></trkpt><trkpt lat="51.9314798713" lon="-2.0163073763"><ele>299.11</ele><time>2014-08-13T10:35:56Z</time></trkpt><trkpt lat="51.9315229543" lon="-2.0163145009"><ele>298.63</ele><time>2014-08-13T10:36:00Z</time></trkpt><trkpt lat="51.9316649437" lon="-2.0163435023"><ele>300.07</ele><time>2014-08-13T10:36:13Z</time></trkpt><trkpt lat="51.9317546301" lon="-2.0163739286"><ele>299.59</ele><time>2014-08-13T10:36:22Z</time></trkpt><trkpt lat="51.9318198413" lon="-2.0164147485"><ele>299.11</ele><time>2014-08-13T10:36:29Z</time></trkpt><trkpt lat="51.9319863059" lon="-2.0164951310"><ele>299.11</ele><time>2014-08-13T10:36:46Z</time></trkpt><trkpt lat="51.9321001321" lon="-2.0165432431"><ele>298.63</ele><time>2014-08-13T10:36:58Z</time></trkpt><trkpt lat="51.9321516808" lon="-2.0165646169"><ele>298.63</ele><time>2014-08-13T10:37:03Z</time></trkpt><trkpt lat="51.9322873838" lon="-2.0166595839"><ele>299.11</ele><time>2014-08-13T10:37:17Z</time></trkpt><trkpt lat="51.9322879706" lon="-2.0166598354"><ele>298.63</ele><time>2014-08-13T10:37:18Z</time></trkpt><trkpt lat="51.9323734660" lon="-2.0167087857"><ele>298.15</ele><time>2014-08-13T10:37:27Z</time></trkpt><trkpt lat="51.9324194826" lon="-2.0167312492"><ele>299.11</ele><time>2014-08-13T10:37:35Z</time></trkpt><trkpt lat="51.9325069059" lon="-2.0167967118"><ele>297.67</ele><time>2014-08-13T10:37:43Z</time></trkpt><trkpt lat="51.9325761404" lon="-2.0168460812"><ele>297.18</ele><time>2014-08-13T10:37:49Z</time></trkpt><trkpt lat="51.9327281043" lon="-2.0169871487"><ele>296.70</ele><time>2014-08-13T10:38:04Z</time></trkpt><trkpt lat="51.9327417668" lon="-2.0170094445"><ele>296.70</ele><time>2014-08-13T10:38:06Z</time></trkpt><trkpt lat="51.9328852650" lon="-2.0171673596"><ele>295.26</ele><time>2014-08-13T10:38:22Z</time></trkpt><trkpt lat="51.9329110812" lon="-2.0172005519"><ele>295.26</ele><time>2014-08-13T10:38:25Z</time></trkpt><trkpt lat="51.9330446050" lon="-2.0173614006"><ele>293.82</ele><time>2014-08-13T10:38:41Z</time></trkpt><trkpt lat="51.9330994226" lon="-2.0174389333"><ele>294.30</ele><time>2014-08-13T10:38:49Z</time></trkpt><trkpt lat="51.9331640471" lon="-2.0175783243"><ele>293.82</ele><time>2014-08-13T10:39:00Z</time></trkpt><trkpt lat="51.9332184456" lon="-2.0176587906"><ele>293.34</ele><time>2014-08-13T10:39:07Z</time></trkpt><trkpt lat="51.9333484489" lon="-2.0178211480"><ele>291.90</ele><time>2014-08-13T10:39:23Z</time></trkpt><trkpt lat="51.9334541447" lon="-2.0179747883"><ele>290.94</ele><time>2014-08-13T10:39:36Z</time></trkpt><trkpt lat="51.9334731717" lon="-2.0179976709"><ele>290.46</ele><time>2014-08-13T10:39:38Z</time></trkpt><trkpt lat="51.9335844833" lon="-2.0181710087"><ele>289.01</ele><time>2014-08-13T10:39:53Z</time></trkpt><trkpt lat="51.9336802885" lon="-2.0183525607"><ele>287.57</ele><time>2014-08-13T10:40:07Z</time></trkpt><trkpt lat="51.9338020775" lon="-2.0185196120"><ele>284.69</ele><time>2014-08-13T10:40:22Z</time></trkpt><trkpt lat="51.9338627625" lon="-2.0185851585"><ele>284.21</ele><time>2014-08-13T10:40:30Z</time></trkpt><trkpt lat="51.9339643512" lon="-2.0187156647"><ele>282.77</ele><time>2014-08-13T10:40:44Z</time></trkpt><trkpt lat="51.9340381958" lon="-2.0188139845"><ele>282.28</ele><time>2014-08-13T10:40:59Z</time></trkpt><trkpt lat="51.9340915047" lon="-2.0189086162"><ele>280.84</ele><time>2014-08-13T10:41:15Z</time></trkpt><trkpt lat="51.9341718871" lon="-2.0190203469"><ele>281.80</ele><time>2014-08-13T10:41:29Z</time></trkpt><trkpt lat="51.9343262818" lon="-2.0191923436"><ele>281.80</ele><time>2014-08-13T10:41:45Z</time></trkpt><trkpt lat="51.9343896490" lon="-2.0192640088"><ele>280.84</ele><time>2014-08-13T10:41:58Z</time></trkpt><trkpt lat="51.9344020542" lon="-2.0192590635"><ele>281.80</ele><time>2014-08-13T10:42:18Z</time></trkpt><trkpt lat="51.9345369190" lon="-2.0192972850"><ele>281.80</ele><time>2014-08-13T10:42:33Z</time></trkpt><trkpt lat="51.9347437844" lon="-2.0193196647"><ele>282.28</ele><time>2014-08-13T10:42:52Z</time></trkpt><trkpt lat="51.9347947463" lon="-2.0193332434"><ele>281.32</ele><time>2014-08-13T10:42:57Z</time></trkpt><trkpt lat="51.9349282701" lon="-2.0192983747"><ele>281.80</ele><time>2014-08-13T10:43:11Z</time></trkpt><trkpt lat="51.9350565970" lon="-2.0192497596"><ele>282.28</ele><time>2014-08-13T10:43:25Z</time></trkpt><trkpt lat="51.9351105765" lon="-2.0192257036"><ele>282.77</ele><time>2014-08-13T10:43:37Z</time></trkpt><trkpt lat="51.9351752847" lon="-2.0192158967"><ele>282.77</ele><time>2014-08-13T10:43:44Z</time></trkpt><trkpt lat="51.9352999236" lon="-2.0191562176"><ele>284.21</ele><time>2014-08-13T10:43:58Z</time></trkpt><trkpt lat="51.9354483671" lon="-2.0191031601"><ele>284.21</ele><time>2014-08-13T10:44:12Z</time></trkpt><trkpt lat="51.9355398137" lon="-2.0190783497"><ele>284.21</ele><time>2014-08-13T10:44:22Z</time></trkpt><trkpt lat="51.9356211182" lon="-2.0190185029"><ele>286.13</ele><time>2014-08-13T10:44:34Z</time></trkpt><trkpt lat="51.9356843177" lon="-2.0189827960"><ele>286.61</ele><time>2014-08-13T10:44:52Z</time></trkpt><trkpt lat="51.9358471781" lon="-2.0188925229"><ele>287.57</ele><time>2014-08-13T10:45:08Z</time></trkpt><trkpt lat="51.9358629361" lon="-2.0188792795"><ele>286.61</ele><time>2014-08-13T10:45:10Z</time></trkpt><trkpt lat="51.9359604176" lon="-2.0188434049"><ele>289.01</ele><time>2014-08-13T10:45:20Z</time></trkpt><trkpt lat="51.9360928517" lon="-2.0187864918"><ele>289.97</ele><time>2014-08-13T10:45:32Z</time></trkpt><trkpt lat="51.9361124653" lon="-2.0187712368"><ele>289.49</ele><time>2014-08-13T10:45:35Z</time></trkpt><trkpt lat="51.9361301512" lon="-2.0187580772"><ele>289.01</ele><time>2014-08-13T10:45:37Z</time></trkpt><trkpt lat="51.9362533651" lon="-2.0186578296"><ele>290.94</ele><time>2014-08-13T10:45:52Z</time></trkpt><trkpt lat="51.9363593124" lon="-2.0185752679"><ele>291.42</ele><time>2014-08-13T10:46:05Z</time></trkpt><trkpt lat="51.9364040717" lon="-2.0185315982"><ele>291.42</ele><time>2014-08-13T10:46:10Z</time></trkpt><trkpt lat="51.9365228433" lon="-2.0184414927"><ele>291.42</ele><time>2014-08-13T10:46:22Z</time></trkpt><trkpt lat="51.9365400262" lon="-2.0184186939"><ele>292.38</ele><time>2014-08-13T10:46:24Z</time></trkpt><trkpt lat="51.9365755655" lon="-2.0183930453"><ele>291.90</ele><time>2014-08-13T10:46:27Z</time></trkpt><trkpt lat="51.9366112724" lon="-2.0183676481"><ele>293.34</ele><time>2014-08-13T10:46:31Z</time></trkpt><trkpt lat="51.9366865419" lon="-2.0183132496"><ele>293.34</ele><time>2014-08-13T10:46:40Z</time></trkpt><trkpt lat="51.9367169682" lon="-2.0182777941"><ele>293.34</ele><time>2014-08-13T10:46:45Z</time></trkpt><trkpt lat="51.9367686845" lon="-2.0182611141"><ele>292.86</ele><time>2014-08-13T10:46:58Z</time></trkpt><trkpt lat="51.9367811736" lon="-2.0182463620"><ele>293.82</ele><time>2014-08-13T10:47:00Z</time></trkpt><trkpt lat="51.9368076604" lon="-2.0182301849"><ele>293.34</ele><time>2014-08-13T10:47:03Z</time></trkpt><trkpt lat="51.9368391763" lon="-2.0182170253"><ele>293.82</ele><time>2014-08-13T10:47:06Z</time></trkpt><trkpt lat="51.9369755499" lon="-2.0180969127"><ele>296.22</ele><time>2014-08-13T10:47:21Z</time></trkpt><trkpt lat="51.9370078202" lon="-2.0180660672"><ele>295.26</ele><time>2014-08-13T10:47:25Z</time></trkpt><trkpt lat="51.9371630531" lon="-2.0179428533"><ele>296.70</ele><time>2014-08-13T10:47:41Z</time></trkpt><trkpt lat="51.9372271746" lon="-2.0178856887"><ele>300.07</ele><time>2014-08-13T10:47:49Z</time></trkpt><trkpt lat="51.9372354727" lon="-2.0178823359"><ele>299.59</ele><time>2014-08-13T10:47:50Z</time></trkpt><trkpt lat="51.9372517336" lon="-2.0178707689"><ele>298.15</ele><time>2014-08-13T10:47:52Z</time></trkpt><trkpt lat="51.9372764602" lon="-2.0178586151"><ele>298.63</ele><time>2014-08-13T10:48:05Z</time></trkpt><trkpt lat="51.9372983370" lon="-2.0178596210"><ele>298.63</ele><time>2014-08-13T10:48:08Z</time></trkpt><trkpt lat="51.9374764524" lon="-2.0178325474"><ele>298.15</ele><time>2014-08-13T10:48:25Z</time></trkpt><trkpt lat="51.9375921227" lon="-2.0178053901"><ele>297.67</ele><time>2014-08-13T10:48:37Z</time></trkpt><trkpt lat="51.9376010075" lon="-2.0178119279"><ele>298.15</ele><time>2014-08-13T10:48:42Z</time></trkpt><trkpt lat="51.9377912767" lon="-2.0178132690"><ele>296.70</ele><time>2014-08-13T10:48:59Z</time></trkpt><trkpt lat="51.9379087072" lon="-2.0178110059"><ele>296.70</ele><time>2014-08-13T10:49:12Z</time></trkpt><trkpt lat="51.9379245490" lon="-2.0178163704"><ele>296.22</ele><time>2014-08-13T10:49:14Z</time></trkpt><trkpt lat="51.9380196836" lon="-2.0178338885"><ele>294.78</ele><time>2014-08-13T10:49:25Z</time></trkpt><trkpt lat="51.9381021615" lon="-2.0178392529"><ele>294.30</ele><time>2014-08-13T10:49:33Z</time></trkpt><trkpt lat="51.9381366950" lon="-2.0178469643"><ele>295.26</ele><time>2014-08-13T10:49:37Z</time></trkpt><trkpt lat="51.9382796902" lon="-2.0179137681"><ele>294.78</ele><time>2014-08-13T10:49:51Z</time></trkpt><trkpt lat="51.9383238629" lon="-2.0179249998"><ele>294.30</ele><time>2014-08-13T10:49:56Z</time></trkpt><trkpt lat="51.9383946061" lon="-2.0179565158"><ele>293.82</ele><time>2014-08-13T10:50:04Z</time></trkpt><trkpt lat="51.9384231884" lon="-2.0179830864"><ele>292.86</ele><time>2014-08-13T10:50:08Z</time></trkpt><trkpt lat="51.9385965262" lon="-2.0180223975"><ele>293.82</ele><time>2014-08-13T10:50:25Z</time></trkpt><trkpt lat="51.9387443829" lon="-2.0180741139"><ele>292.86</ele><time>2014-08-13T10:50:38Z</time></trkpt><trkpt lat="51.9388754759" lon="-2.0181339607"><ele>292.38</ele><time>2014-08-13T10:50:50Z</time></trkpt><trkpt lat="51.9390180521" lon="-2.0181663148"><ele>291.42</ele><time>2014-08-13T10:51:05Z</time></trkpt><trkpt lat="51.9390249252" lon="-2.0181660634"><ele>291.90</ele><time>2014-08-13T10:51:06Z</time></trkpt><trkpt lat="51.9390727021" lon="-2.0181766246"><ele>290.94</ele><time>2014-08-13T10:51:16Z</time></trkpt><trkpt lat="51.9391010329" lon="-2.0181784686"><ele>290.94</ele><time>2014-08-13T10:51:30Z</time></trkpt><trkpt lat="51.9391141925" lon="-2.0181744453"><ele>290.94</ele><time>2014-08-13T10:51:39Z</time></trkpt><trkpt lat="51.9391831756" lon="-2.0181824919"><ele>289.49</ele><time>2014-08-13T10:51:46Z</time></trkpt><trkpt lat="51.9393196329" lon="-2.0181962382"><ele>288.53</ele><time>2014-08-13T10:51:59Z</time></trkpt><trkpt lat="51.9393323734" lon="-2.0181966573"><ele>288.53</ele><time>2014-08-13T10:52:00Z</time></trkpt><trkpt lat="51.9393583573" lon="-2.0182103198"><ele>289.01</ele><time>2014-08-13T10:52:03Z</time></trkpt><trkpt lat="51.9394120853" lon="-2.0182321966"><ele>289.49</ele><time>2014-08-13T10:52:08Z</time></trkpt><trkpt lat="51.9394531567" lon="-2.0182522293"><ele>288.53</ele><time>2014-08-13T10:52:13Z</time></trkpt><trkpt lat="51.9395670667" lon="-2.0182943065"><ele>287.09</ele><time>2014-08-13T10:52:25Z</time></trkpt><trkpt lat="51.9395845849" lon="-2.0183037780"><ele>286.13</ele><time>2014-08-13T10:52:27Z</time></trkpt><trkpt lat="51.9395933859" lon="-2.0183066279"><ele>286.61</ele><time>2014-08-13T10:52:28Z</time></trkpt></trkseg></trk></gpx>